sensor_id;sensor_type;location;lat;lon;timestamp;temperature;humidity
14405;DHT22;14983;50.866;4.304;2022-08-21T00:01:16;17.40;1.00
14405;DHT22;14983;50.866;4.304;2022-08-21T00:03:50;17.40;99.90
14405;DHT22;14983;50.866;4.304;2022-08-21T00:06:22;17.40;1.00
14405;DHT22;14983;50.866;4.304;2022-08-21T00:09:18;17.30;1.00
14405;DHT22;14983;50.866;4.304;2022-08-21T00:11:58;17.30;1.00
14405;DHT22;14983;50.866;4.304;2022-08-21T00:14:27;17.30;1.00
14405;DHT22;14983;50.866;4.304;2022-08-21T00:17:02;17.20;1.00
14405;DHT22;14983;50.866;4.304;2022-08-21T00:19:36;17.20;1.00
14405;DHT22;14983;50.866;4.304;2022-08-21T00:22:11;17.10;99.90
14405;DHT22;14983;50.866;4.304;2022-08-21T00:24:39;17.00;1.00
14405;DHT22;14983;50.866;4.304;2022-08-21T00:27:07;17.00;1.00
14405;DHT22;14983;50.866;4.304;2022-08-21T00:29:34;17.00;1.00
14405;DHT22;14983;50.866;4.304;2022-08-21T00:32:04;16.90;1.00
14405;DHT22;14983;50.866;4.304;2022-08-21T00:34:55;16.80;86.20
14405;DHT22;14983;50.866;4.304;2022-08-21T00:37:31;16.70;99.90
14405;DHT22;14983;50.866;4.304;2022-08-21T00:40:00;16.70;1.00
14405;DHT22;14983;50.866;4.304;2022-08-21T00:42:28;16.70;1.00
14405;DHT22;14983;50.866;4.304;2022-08-21T00:44:56;16.60;1.00
14405;DHT22;14983;50.866;4.304;2022-08-21T00:47:26;16.60;1.00
14405;DHT22;14983;50.866;4.304;2022-08-21T00:49:55;16.70;99.90
14405;DHT22;14983;50.866;4.304;2022-08-21T00:52:37;16.60;1.00
14405;DHT22;14983;50.866;4.304;2022-08-21T00:55:13;16.50;99.90
14405;DHT22;14983;50.866;4.304;2022-08-21T00:57:46;16.50;99.90
14405;DHT22;14983;50.866;4.304;2022-08-21T01:00:30;16.60;1.00
14405;DHT22;14983;50.866;4.304;2022-08-21T01:03:05;16.50;99.90
14405;DHT22;14983;50.866;4.304;2022-08-21T01:05:37;16.50;1.00
14405;DHT22;14983;50.866;4.304;2022-08-21T01:08:07;16.40;17.50
14405;DHT22;14983;50.866;4.304;2022-08-21T01:10:46;16.30;1.00
14405;DHT22;14983;50.866;4.304;2022-08-21T01:13:15;16.30;13.50
14405;DHT22;14983;50.866;4.304;2022-08-21T01:15:46;16.30;99.90
14405;DHT22;14983;50.866;4.304;2022-08-21T01:18:15;16.20;99.90
14405;DHT22;14983;50.866;4.304;2022-08-21T01:20:52;16.20;99.90
14405;DHT22;14983;50.866;4.304;2022-08-21T01:23:24;16.10;1.00
14405;DHT22;14983;50.866;4.304;2022-08-21T01:25:55;16.00;1.00
14405;DHT22;14983;50.866;4.304;2022-08-21T01:28:24;16.10;99.90
14405;DHT22;14983;50.866;4.304;2022-08-21T01:30:52;15.90;1.00
14405;DHT22;14983;50.866;4.304;2022-08-21T01:33:24;15.80;99.90
14405;DHT22;14983;50.866;4.304;2022-08-21T01:35:55;15.80;1.00
14405;DHT22;14983;50.866;4.304;2022-08-21T01:38:24;15.80;1.00
14405;DHT22;14983;50.866;4.304;2022-08-21T01:40:55;15.70;1.00
14405;DHT22;14983;50.866;4.304;2022-08-21T01:43:22;15.70;1.00
14405;DHT22;14983;50.866;4.304;2022-08-21T01:45:49;15.70;1.00
14405;DHT22;14983;50.866;4.304;2022-08-21T01:48:19;15.60;1.00
14405;DHT22;14983;50.866;4.304;2022-08-21T01:50:46;15.50;1.00
14405;DHT22;14983;50.866;4.304;2022-08-21T01:53:19;15.60;1.00
14405;DHT22;14983;50.866;4.304;2022-08-21T01:55:48;15.60;1.00
14405;DHT22;14983;50.866;4.304;2022-08-21T01:58:15;15.50;1.00
14405;DHT22;14983;50.866;4.304;2022-08-21T02:00:43;15.60;1.00
14405;DHT22;14983;50.866;4.304;2022-08-21T02:03:11;15.60;1.00
14405;DHT22;14983;50.866;4.304;2022-08-21T02:05:38;15.60;1.00
14405;DHT22;14983;50.866;4.304;2022-08-21T02:08:06;15.60;1.00
14405;DHT22;14983;50.866;4.304;2022-08-21T02:10:36;15.60;1.00
14405;DHT22;14983;50.866;4.304;2022-08-21T02:13:04;15.50;1.00
14405;DHT22;14983;50.866;4.304;2022-08-21T02:15:34;15.50;1.00
14405;DHT22;14983;50.866;4.304;2022-08-21T02:18:02;15.60;1.00
14405;DHT22;14983;50.866;4.304;2022-08-21T02:20:36;15.50;1.00
14405;DHT22;14983;50.866;4.304;2022-08-21T02:23:04;15.50;4.60
14405;DHT22;14983;50.866;4.304;2022-08-21T02:25:32;15.40;1.00
14405;DHT22;14983;50.866;4.304;2022-08-21T02:28:04;15.40;52.40
14405;DHT22;14983;50.866;4.304;2022-08-21T02:30:35;15.40;24.20
14405;DHT22;14983;50.866;4.304;2022-08-21T02:33:08;15.40;1.00
14405;DHT22;14983;50.866;4.304;2022-08-21T02:35:38;15.50;1.00
14405;DHT22;14983;50.866;4.304;2022-08-21T02:38:12;15.50;1.00
14405;DHT22;14983;50.866;4.304;2022-08-21T02:40:42;15.40;1.00
14405;DHT22;14983;50.866;4.304;2022-08-21T02:43:18;15.30;21.40
14405;DHT22;14983;50.866;4.304;2022-08-21T02:45:48;15.30;40.60
14405;DHT22;14983;50.866;4.304;2022-08-21T02:48:21;15.40;1.00
14405;DHT22;14983;50.866;4.304;2022-08-21T02:50:53;15.40;1.00
14405;DHT22;14983;50.866;4.304;2022-08-21T02:53:25;15.30;1.00
14405;DHT22;14983;50.866;4.304;2022-08-21T02:56:10;15.30;23.10
14405;DHT22;14983;50.866;4.304;2022-08-21T02:58:45;15.20;99.90
14405;DHT22;14983;50.866;4.304;2022-08-21T03:01:15;15.20;99.90
14405;DHT22;14983;50.866;4.304;2022-08-21T03:03:46;15.10;99.90
14405;DHT22;14983;50.866;4.304;2022-08-21T03:06:19;15.10;99.90
14405;DHT22;14983;50.866;4.304;2022-08-21T03:08:48;15.00;99.90
14405;DHT22;14983;50.866;4.304;2022-08-21T03:11:25;15.00;99.90
14405;DHT22;14983;50.866;4.304;2022-08-21T03:13:58;15.00;99.90
14405;DHT22;14983;50.866;4.304;2022-08-21T03:16:26;14.70;99.90
14405;DHT22;14983;50.866;4.304;2022-08-21T03:18:56;14.70;99.90
14405;DHT22;14983;50.866;4.304;2022-08-21T03:21:29;14.70;99.90
14405;DHT22;14983;50.866;4.304;2022-08-21T03:24:03;14.70;99.90
14405;DHT22;14983;50.866;4.304;2022-08-21T03:26:31;14.60;99.90
14405;DHT22;14983;50.866;4.304;2022-08-21T03:28:59;14.60;99.90
14405;DHT22;14983;50.866;4.304;2022-08-21T03:31:26;14.60;99.90
14405;DHT22;14983;50.866;4.304;2022-08-21T03:33:57;14.60;99.90
14405;DHT22;14983;50.866;4.304;2022-08-21T03:36:24;14.60;99.90
14405;DHT22;14983;50.866;4.304;2022-08-21T03:38:51;14.60;99.90
14405;DHT22;14983;50.866;4.304;2022-08-21T03:41:33;14.60;99.90
14405;DHT22;14983;50.866;4.304;2022-08-21T03:44:02;14.60;99.90
14405;DHT22;14983;50.866;4.304;2022-08-21T03:46:31;14.70;99.90
14405;DHT22;14983;50.866;4.304;2022-08-21T03:49:16;14.70;99.90
14405;DHT22;14983;50.866;4.304;2022-08-21T03:51:55;14.70;99.90
14405;DHT22;14983;50.866;4.304;2022-08-21T03:54:22;14.70;99.90
14405;DHT22;14983;50.866;4.304;2022-08-21T03:56:50;14.80;99.90
14405;DHT22;14983;50.866;4.304;2022-08-21T03:59:19;14.80;99.90
14405;DHT22;14983;50.866;4.304;2022-08-21T04:01:53;15.00;99.90
14405;DHT22;14983;50.866;4.304;2022-08-21T04:04:21;14.90;99.90
14405;DHT22;14983;50.866;4.304;2022-08-21T04:06:52;14.80;99.90
14405;DHT22;14983;50.866;4.304;2022-08-21T04:09:23;14.90;99.90
14405;DHT22;14983;50.866;4.304;2022-08-21T04:11:50;15.00;99.90
14405;DHT22;14983;50.866;4.304;2022-08-21T04:14:20;14.90;99.90
14405;DHT22;14983;50.866;4.304;2022-08-21T04:16:47;14.90;99.90
14405;DHT22;14983;50.866;4.304;2022-08-21T04:19:17;15.00;99.90
14405;DHT22;14983;50.866;4.304;2022-08-21T04:21:44;14.80;99.90
14405;DHT22;14983;50.866;4.304;2022-08-21T04:24:14;14.80;99.90
14405;DHT22;14983;50.866;4.304;2022-08-21T04:26:42;14.60;99.90
14405;DHT22;14983;50.866;4.304;2022-08-21T04:29:16;14.60;99.90
14405;DHT22;14983;50.866;4.304;2022-08-21T04:32:20;14.40;99.90
14405;DHT22;14983;50.866;4.304;2022-08-21T04:34:57;14.40;99.90
14405;DHT22;14983;50.866;4.304;2022-08-21T04:37:50;14.40;99.90
14405;DHT22;14983;50.866;4.304;2022-08-21T04:40:25;14.40;99.90
14405;DHT22;14983;50.866;4.304;2022-08-21T04:42:56;14.50;99.90
14405;DHT22;14983;50.866;4.304;2022-08-21T04:45:28;14.50;99.90
14405;DHT22;14983;50.866;4.304;2022-08-21T04:48:00;14.50;99.90
14405;DHT22;14983;50.866;4.304;2022-08-21T04:50:29;14.50;99.90
14405;DHT22;14983;50.866;4.304;2022-08-21T04:53:03;14.50;99.90
14405;DHT22;14983;50.866;4.304;2022-08-21T04:55:31;14.60;99.90
14405;DHT22;14983;50.866;4.304;2022-08-21T04:57:59;14.60;99.90
14405;DHT22;14983;50.866;4.304;2022-08-21T05:00:27;14.70;99.90
14405;DHT22;14983;50.866;4.304;2022-08-21T05:02:57;14.60;99.90
14405;DHT22;14983;50.866;4.304;2022-08-21T05:05:28;14.70;99.90
14405;DHT22;14983;50.866;4.304;2022-08-21T05:07:59;14.70;99.90
14405;DHT22;14983;50.866;4.304;2022-08-21T05:10:28;14.70;99.90
14405;DHT22;14983;50.866;4.304;2022-08-21T05:13:05;14.70;99.90
14405;DHT22;14983;50.866;4.304;2022-08-21T05:15:37;14.80;99.90
14405;DHT22;14983;50.866;4.304;2022-08-21T05:18:10;14.80;99.90
14405;DHT22;14983;50.866;4.304;2022-08-21T05:20:38;14.70;99.90
14405;DHT22;14983;50.866;4.304;2022-08-21T05:23:08;14.80;99.90
14405;DHT22;14983;50.866;4.304;2022-08-21T05:25:42;14.80;99.90
14405;DHT22;14983;50.866;4.304;2022-08-21T05:28:10;14.80;99.90
14405;DHT22;14983;50.866;4.304;2022-08-21T05:30:40;14.90;99.90
14405;DHT22;14983;50.866;4.304;2022-08-21T05:33:30;14.90;99.90
14405;DHT22;14983;50.866;4.304;2022-08-21T05:36:13;15.00;99.90
14405;DHT22;14983;50.866;4.304;2022-08-21T05:38:43;15.00;99.90
14405;DHT22;14983;50.866;4.304;2022-08-21T05:41:14;15.00;99.90
14405;DHT22;14983;50.866;4.304;2022-08-21T05:43:43;15.10;99.90
14405;DHT22;14983;50.866;4.304;2022-08-21T05:46:12;15.00;99.90
14405;DHT22;14983;50.866;4.304;2022-08-21T05:48:43;15.00;99.90
14405;DHT22;14983;50.866;4.304;2022-08-21T05:51:13;15.00;99.90
14405;DHT22;14983;50.866;4.304;2022-08-21T05:53:53;15.00;99.90
14405;DHT22;14983;50.866;4.304;2022-08-21T05:56:31;15.10;99.90
14405;DHT22;14983;50.866;4.304;2022-08-21T05:58:58;15.10;99.90
14405;DHT22;14983;50.866;4.304;2022-08-21T06:01:29;15.20;99.90
14405;DHT22;14983;50.866;4.304;2022-08-21T06:03:58;15.20;99.90
14405;DHT22;14983;50.866;4.304;2022-08-21T06:06:27;15.20;99.90
14405;DHT22;14983;50.866;4.304;2022-08-21T06:08:55;15.10;99.90
14405;DHT22;14983;50.866;4.304;2022-08-21T06:11:28;15.20;99.90
14405;DHT22;14983;50.866;4.304;2022-08-21T06:14:01;15.30;99.90
14405;DHT22;14983;50.866;4.304;2022-08-21T06:16:34;15.30;99.90
14405;DHT22;14983;50.866;4.304;2022-08-21T06:19:08;15.40;99.90
14405;DHT22;14983;50.866;4.304;2022-08-21T06:21:41;15.40;40.10
14405;DHT22;14983;50.866;4.304;2022-08-21T06:24:10;15.50;67.70
14405;DHT22;14983;50.866;4.304;2022-08-21T06:26:37;15.60;99.90
14405;DHT22;14983;50.866;4.304;2022-08-21T06:29:04;15.60;1.00
14405;DHT22;14983;50.866;4.304;2022-08-21T06:31:32;15.90;1.00
14405;DHT22;14983;50.866;4.304;2022-08-21T06:34:00;15.90;1.00
14405;DHT22;14983;50.866;4.304;2022-08-21T06:36:32;16.00;1.00
14405;DHT22;14983;50.866;4.304;2022-08-21T06:39:17;16.10;1.00
14405;DHT22;14983;50.866;4.304;2022-08-21T06:41:50;16.20;99.90
14405;DHT22;14983;50.866;4.304;2022-08-21T06:44:18;16.20;1.00
14405;DHT22;14983;50.866;4.304;2022-08-21T06:46:48;16.30;99.90
14405;DHT22;14983;50.866;4.304;2022-08-21T06:49:15;16.50;99.90
14405;DHT22;14983;50.866;4.304;2022-08-21T06:51:48;16.60;5.10
14405;DHT22;14983;50.866;4.304;2022-08-21T06:54:21;16.70;1.00
14405;DHT22;14983;50.866;4.304;2022-08-21T06:57:36;16.80;99.90
14405;DHT22;14983;50.866;4.304;2022-08-21T07:00:08;17.00;99.90
14405;DHT22;14983;50.866;4.304;2022-08-21T07:02:46;17.10;99.90
14405;DHT22;14983;50.866;4.304;2022-08-21T07:05:16;17.10;1.00
14405;DHT22;14983;50.866;4.304;2022-08-21T07:08:15;17.20;99.90
14405;DHT22;14983;50.866;4.304;2022-08-21T07:10:43;17.30;1.00
14405;DHT22;14983;50.866;4.304;2022-08-21T07:13:16;17.50;1.00
14405;DHT22;14983;50.866;4.304;2022-08-21T07:15:56;17.60;1.00
14405;DHT22;14983;50.866;4.304;2022-08-21T07:18:35;17.70;6.50
14405;DHT22;14983;50.866;4.304;2022-08-21T07:21:07;17.90;99.90
14405;DHT22;14983;50.866;4.304;2022-08-21T07:24:00;17.80;53.70
14405;DHT22;14983;50.866;4.304;2022-08-21T07:26:38;18.00;1.00
14405;DHT22;14983;50.866;4.304;2022-08-21T07:29:06;17.90;99.90
14405;DHT22;14983;50.866;4.304;2022-08-21T07:31:36;17.90;1.00
14405;DHT22;14983;50.866;4.304;2022-08-21T07:34:03;17.90;1.00
14405;DHT22;14983;50.866;4.304;2022-08-21T07:36:33;18.10;99.90
14405;DHT22;14983;50.866;4.304;2022-08-21T07:39:10;18.30;99.90
14405;DHT22;14983;50.866;4.304;2022-08-21T07:41:39;18.50;1.00
14405;DHT22;14983;50.866;4.304;2022-08-21T07:44:06;18.60;1.00
14405;DHT22;14983;50.866;4.304;2022-08-21T07:46:33;18.90;99.90
14405;DHT22;14983;50.866;4.304;2022-08-21T07:49:05;19.30;99.90
14405;DHT22;14983;50.866;4.304;2022-08-21T07:51:33;19.60;99.90
14405;DHT22;14983;50.866;4.304;2022-08-21T07:54:02;19.50;99.90
14405;DHT22;14983;50.866;4.304;2022-08-21T07:56:30;19.40;1.00
14405;DHT22;14983;50.866;4.304;2022-08-21T07:58:58;19.30;1.00
14405;DHT22;14983;50.866;4.304;2022-08-21T08:01:29;19.10;99.90
14405;DHT22;14983;50.866;4.304;2022-08-21T08:03:59;19.10;99.90
14405;DHT22;14983;50.866;4.304;2022-08-21T08:06:32;19.20;99.90
14405;DHT22;14983;50.866;4.304;2022-08-21T08:09:02;18.90;1.00
14405;DHT22;14983;50.866;4.304;2022-08-21T08:11:37;19.00;99.90
14405;DHT22;14983;50.866;4.304;2022-08-21T08:14:07;19.10;99.90
14405;DHT22;14983;50.866;4.304;2022-08-21T08:16:34;19.10;99.90
14405;DHT22;14983;50.866;4.304;2022-08-21T08:19:01;19.20;99.90
14405;DHT22;14983;50.866;4.304;2022-08-21T08:21:29;19.20;99.90
14405;DHT22;14983;50.866;4.304;2022-08-21T08:23:58;19.20;99.90
14405;DHT22;14983;50.866;4.304;2022-08-21T08:26:31;19.20;1.00
14405;DHT22;14983;50.866;4.304;2022-08-21T08:29:03;19.20;99.90
14405;DHT22;14983;50.866;4.304;2022-08-21T08:31:33;19.30;1.00
14405;DHT22;14983;50.866;4.304;2022-08-21T08:34:06;19.30;1.00
14405;DHT22;14983;50.866;4.304;2022-08-21T08:36:56;19.40;1.00
14405;DHT22;14983;50.866;4.304;2022-08-21T08:39:38;19.60;1.00
14405;DHT22;14983;50.866;4.304;2022-08-21T08:42:12;19.90;99.90
14405;DHT22;14983;50.866;4.304;2022-08-21T08:44:47;19.90;1.00
14405;DHT22;14983;50.866;4.304;2022-08-21T08:47:20;20.20;99.90
14405;DHT22;14983;50.866;4.304;2022-08-21T08:50:03;20.20;99.90
14405;DHT22;14983;50.866;4.304;2022-08-21T08:52:39;20.10;1.00
14405;DHT22;14983;50.866;4.304;2022-08-21T08:55:13;20.30;99.90
14405;DHT22;14983;50.866;4.304;2022-08-21T08:57:45;19.90;99.90
14405;DHT22;14983;50.866;4.304;2022-08-21T09:00:15;19.70;1.00
14405;DHT22;14983;50.866;4.304;2022-08-21T09:02:44;19.90;99.90
14405;DHT22;14983;50.866;4.304;2022-08-21T09:05:22;20.00;1.00
14405;DHT22;14983;50.866;4.304;2022-08-21T09:08:19;20.30;99.90
14405;DHT22;14983;50.866;4.304;2022-08-21T09:11:03;20.50;99.90
14405;DHT22;14983;50.866;4.304;2022-08-21T09:13:45;20.30;1.00
14405;DHT22;14983;50.866;4.304;2022-08-21T09:16:32;20.40;1.00
14405;DHT22;14983;50.866;4.304;2022-08-21T09:19:11;20.50;99.90
14405;DHT22;14983;50.866;4.304;2022-08-21T09:21:53;20.50;99.90
14405;DHT22;14983;50.866;4.304;2022-08-21T09:24:31;20.60;99.90
14405;DHT22;14983;50.866;4.304;2022-08-21T09:27:04;20.60;99.90
14405;DHT22;14983;50.866;4.304;2022-08-21T09:29:38;20.80;97.40
14405;DHT22;14983;50.866;4.304;2022-08-21T09:32:11;20.90;26.40
14405;DHT22;14983;50.866;4.304;2022-08-21T09:34:42;21.00;1.00
14405;DHT22;14983;50.866;4.304;2022-08-21T09:37:16;21.00;17.10
14405;DHT22;14983;50.866;4.304;2022-08-21T09:39:44;21.40;1.00
14405;DHT22;14983;50.866;4.304;2022-08-21T09:42:11;21.90;1.00
14405;DHT22;14983;50.866;4.304;2022-08-21T09:45:00;22.00;99.90
14405;DHT22;14983;50.866;4.304;2022-08-21T09:47:31;21.80;99.90
14405;DHT22;14983;50.866;4.304;2022-08-21T09:50:08;21.60;1.00
14405;DHT22;14983;50.866;4.304;2022-08-21T09:52:43;21.60;99.90
14405;DHT22;14983;50.866;4.304;2022-08-21T09:55:16;21.70;99.90
14405;DHT22;14983;50.866;4.304;2022-08-21T09:57:59;21.30;99.90
14405;DHT22;14983;50.866;4.304;2022-08-21T10:00:30;21.10;1.00
14405;DHT22;14983;50.866;4.304;2022-08-21T10:03:15;21.30;1.00
14405;DHT22;14983;50.866;4.304;2022-08-21T10:05:55;21.30;1.00
14405;DHT22;14983;50.866;4.304;2022-08-21T10:08:25;21.10;1.00
14405;DHT22;14983;50.866;4.304;2022-08-21T10:10:56;21.00;1.00
14405;DHT22;14983;50.866;4.304;2022-08-21T10:13:41;21.00;1.00
14405;DHT22;14983;50.866;4.304;2022-08-21T10:16:23;21.40;1.00
14405;DHT22;14983;50.866;4.304;2022-08-21T10:19:00;21.30;1.00
14405;DHT22;14983;50.866;4.304;2022-08-21T10:21:33;21.70;1.00
14405;DHT22;14983;50.866;4.304;2022-08-21T10:24:10;22.10;99.90
14405;DHT22;14983;50.866;4.304;2022-08-21T10:26:47;22.20;99.90
14405;DHT22;14983;50.866;4.304;2022-08-21T10:29:28;22.20;99.90
14405;DHT22;14983;50.866;4.304;2022-08-21T10:32:07;21.70;99.90
14405;DHT22;14983;50.866;4.304;2022-08-21T10:34:50;21.40;1.00
14405;DHT22;14983;50.866;4.304;2022-08-21T10:37:37;21.60;1.00
14405;DHT22;14983;50.866;4.304;2022-08-21T10:40:16;22.10;99.90
14405;DHT22;14983;50.866;4.304;2022-08-21T10:42:55;22.20;99.90
14405;DHT22;14983;50.866;4.304;2022-08-21T10:45:32;22.40;99.90
14405;DHT22;14983;50.866;4.304;2022-08-21T10:48:06;22.50;99.90
14405;DHT22;14983;50.866;4.304;2022-08-21T10:50:39;22.90;99.90
14405;DHT22;14983;50.866;4.304;2022-08-21T10:53:22;22.80;99.90
14405;DHT22;14983;50.866;4.304;2022-08-21T10:55:56;22.60;99.90
14405;DHT22;14983;50.866;4.304;2022-08-21T10:58:30;22.90;99.90
14405;DHT22;14983;50.866;4.304;2022-08-21T11:01:01;22.50;99.90
14405;DHT22;14983;50.866;4.304;2022-08-21T11:03:35;22.20;99.90
14405;DHT22;14983;50.866;4.304;2022-08-21T11:06:11;22.10;99.90
14405;DHT22;14983;50.866;4.304;2022-08-21T11:08:44;22.60;99.90
14405;DHT22;14983;50.866;4.304;2022-08-21T11:11:15;23.00;99.90
14405;DHT22;14983;50.866;4.304;2022-08-21T11:13:48;22.80;99.90
14405;DHT22;14983;50.866;4.304;2022-08-21T11:16:25;22.30;99.90
14405;DHT22;14983;50.866;4.304;2022-08-21T11:19:00;22.30;99.90
14405;DHT22;14983;50.866;4.304;2022-08-21T11:21:36;22.40;99.90
14405;DHT22;14983;50.866;4.304;2022-08-21T11:24:21;22.70;99.90
14405;DHT22;14983;50.866;4.304;2022-08-21T11:26:57;23.00;99.90
14405;DHT22;14983;50.866;4.304;2022-08-21T11:29:28;23.20;66.60
14405;DHT22;14983;50.866;4.304;2022-08-21T11:34:54;23.00;97.70
14405;DHT22;14983;50.866;4.304;2022-08-21T11:37:45;22.90;99.90
14405;DHT22;14983;50.866;4.304;2022-08-21T11:40:26;23.20;38.40
14405;DHT22;14983;50.866;4.304;2022-08-21T11:43:05;23.50;1.00
14405;DHT22;14983;50.866;4.304;2022-08-21T11:45:39;23.20;1.00
14405;DHT22;14983;50.866;4.304;2022-08-21T11:48:15;22.80;99.90
14405;DHT22;14983;50.866;4.304;2022-08-21T11:50:45;22.80;99.90
14405;DHT22;14983;50.866;4.304;2022-08-21T11:53:16;23.20;95.80
14405;DHT22;14983;50.866;4.304;2022-08-21T11:55:50;23.90;24.00
14405;DHT22;14983;50.866;4.304;2022-08-21T11:58:27;23.10;1.00
14405;DHT22;14983;50.866;4.304;2022-08-21T12:00:57;23.80;1.00
14405;DHT22;14983;50.866;4.304;2022-08-21T12:03:28;24.50;1.00
14405;DHT22;14983;50.866;4.304;2022-08-21T12:06:00;24.70;1.00
14405;DHT22;14983;50.866;4.304;2022-08-21T12:08:30;24.90;1.00
14405;DHT22;14983;50.866;4.304;2022-08-21T12:11:04;24.70;1.00
14405;DHT22;14983;50.866;4.304;2022-08-21T12:13:32;24.80;1.00
14405;DHT22;14983;50.866;4.304;2022-08-21T12:16:11;24.50;1.00
14405;DHT22;14983;50.866;4.304;2022-08-21T12:18:38;24.60;1.00
14405;DHT22;14983;50.866;4.304;2022-08-21T12:21:21;24.90;1.00
14405;DHT22;14983;50.866;4.304;2022-08-21T12:24:00;25.80;1.00
14405;DHT22;14983;50.866;4.304;2022-08-21T12:26:29;26.90;99.90
14405;DHT22;14983;50.866;4.304;2022-08-21T12:29:07;27.20;99.90
14405;DHT22;14983;50.866;4.304;2022-08-21T12:34:37;27.20;99.90
14405;DHT22;14983;50.866;4.304;2022-08-21T12:37:15;27.60;99.90
14405;DHT22;14983;50.866;4.304;2022-08-21T12:39:47;28.10;99.90
14405;DHT22;14983;50.866;4.304;2022-08-21T12:42:17;28.00;99.90
14405;DHT22;14983;50.866;4.304;2022-08-21T12:44:47;27.30;99.90
14405;DHT22;14983;50.866;4.304;2022-08-21T12:47:22;26.40;99.90
14405;DHT22;14983;50.866;4.304;2022-08-21T12:50:01;25.30;99.90
14405;DHT22;14983;50.866;4.304;2022-08-21T12:52:40;25.00;99.90
14405;DHT22;14983;50.866;4.304;2022-08-21T12:55:13;25.00;99.90
14405;DHT22;14983;50.866;4.304;2022-08-21T12:57:41;24.80;1.00
14405;DHT22;14983;50.866;4.304;2022-08-21T13:00:11;24.70;1.00
14405;DHT22;14983;50.866;4.304;2022-08-21T13:02:43;24.70;1.00
14405;DHT22;14983;50.866;4.304;2022-08-21T13:05:27;24.70;1.00
14405;DHT22;14983;50.866;4.304;2022-08-21T13:07:56;24.90;1.00
14405;DHT22;14983;50.866;4.304;2022-08-21T13:10:26;25.00;1.00
14405;DHT22;14983;50.866;4.304;2022-08-21T13:12:55;25.20;1.00
14405;DHT22;14983;50.866;4.304;2022-08-21T13:15:26;25.20;1.00
14405;DHT22;14983;50.866;4.304;2022-08-21T13:17:54;25.40;99.90
14405;DHT22;14983;50.866;4.304;2022-08-21T13:20:36;25.30;99.90
14405;DHT22;14983;50.866;4.304;2022-08-21T13:23:18;25.50;99.90
14405;DHT22;14983;50.866;4.304;2022-08-21T13:25:45;25.40;99.90
14405;DHT22;14983;50.866;4.304;2022-08-21T13:28:12;25.00;99.90
14405;DHT22;14983;50.866;4.304;2022-08-21T13:30:42;25.00;99.90
14405;DHT22;14983;50.866;4.304;2022-08-21T13:33:12;25.50;99.90
14405;DHT22;14983;50.866;4.304;2022-08-21T13:35:48;25.60;99.90
14405;DHT22;14983;50.866;4.304;2022-08-21T13:38:19;25.70;99.90
14405;DHT22;14983;50.866;4.304;2022-08-21T13:40:49;25.80;99.90
14405;DHT22;14983;50.866;4.304;2022-08-21T13:43:21;26.10;99.90
14405;DHT22;14983;50.866;4.304;2022-08-21T13:45:53;26.30;99.90
14405;DHT22;14983;50.866;4.304;2022-08-21T13:48:36;26.40;99.90
14405;DHT22;14983;50.866;4.304;2022-08-21T13:51:07;27.10;99.90
14405;DHT22;14983;50.866;4.304;2022-08-21T13:53:45;27.70;99.90
14405;DHT22;14983;50.866;4.304;2022-08-21T13:56:27;28.10;99.90
14405;DHT22;14983;50.866;4.304;2022-08-21T13:58:57;28.10;99.90
14405;DHT22;14983;50.866;4.304;2022-08-21T14:01:31;28.00;99.90
14405;DHT22;14983;50.866;4.304;2022-08-21T14:04:05;27.20;99.90
14405;DHT22;14983;50.866;4.304;2022-08-21T14:06:41;27.00;99.90
14405;DHT22;14983;50.866;4.304;2022-08-21T14:09:12;26.90;99.90
14405;DHT22;14983;50.866;4.304;2022-08-21T14:11:43;26.30;99.90
14405;DHT22;14983;50.866;4.304;2022-08-21T14:14:16;25.90;99.90
14405;DHT22;14983;50.866;4.304;2022-08-21T14:16:53;25.60;99.90
14405;DHT22;14983;50.866;4.304;2022-08-21T14:19:25;25.40;99.90
14405;DHT22;14983;50.866;4.304;2022-08-21T14:21:53;25.00;99.90
14405;DHT22;14983;50.866;4.304;2022-08-21T14:24:31;24.60;99.90
14405;DHT22;14983;50.866;4.304;2022-08-21T14:27:04;24.60;99.90
14405;DHT22;14983;50.866;4.304;2022-08-21T14:30:09;25.10;99.90
14405;DHT22;14983;50.866;4.304;2022-08-21T14:33:22;25.10;99.90
14405;DHT22;14983;50.866;4.304;2022-08-21T14:36:10;26.00;99.90
14405;DHT22;14983;50.866;4.304;2022-08-21T14:38:40;26.40;99.90
14405;DHT22;14983;50.866;4.304;2022-08-21T14:41:15;26.10;99.90
14405;DHT22;14983;50.866;4.304;2022-08-21T14:43:43;26.10;99.90
14405;DHT22;14983;50.866;4.304;2022-08-21T14:46:11;26.90;99.90
14405;DHT22;14983;50.866;4.304;2022-08-21T14:48:39;27.50;99.90
14405;DHT22;14983;50.866;4.304;2022-08-21T14:51:06;27.40;99.90
14405;DHT22;14983;50.866;4.304;2022-08-21T14:53:33;26.50;99.90
14405;DHT22;14983;50.866;4.304;2022-08-21T14:56:00;25.80;99.90
14405;DHT22;14983;50.866;4.304;2022-08-21T14:58:36;25.50;99.90
14405;DHT22;14983;50.866;4.304;2022-08-21T15:01:05;25.30;99.90
14405;DHT22;14983;50.866;4.304;2022-08-21T15:03:32;25.00;99.90
14405;DHT22;14983;50.866;4.304;2022-08-21T15:06:00;24.40;99.90
14405;DHT22;14983;50.866;4.304;2022-08-21T15:08:27;24.20;99.90
14405;DHT22;14983;50.866;4.304;2022-08-21T15:10:56;24.50;99.90
14405;DHT22;14983;50.866;4.304;2022-08-21T15:13:23;24.50;99.90
14405;DHT22;14983;50.866;4.304;2022-08-21T15:15:52;24.50;99.90
14405;DHT22;14983;50.866;4.304;2022-08-21T15:18:19;24.30;99.90
14405;DHT22;14983;50.866;4.304;2022-08-21T15:20:46;24.40;99.90
14405;DHT22;14983;50.866;4.304;2022-08-21T15:23:13;24.40;99.90
14405;DHT22;14983;50.866;4.304;2022-08-21T15:25:41;24.60;99.90
14405;DHT22;14983;50.866;4.304;2022-08-21T15:28:09;24.60;99.90
14405;DHT22;14983;50.866;4.304;2022-08-21T15:30:37;24.20;99.90
14405;DHT22;14983;50.866;4.304;2022-08-21T15:33:06;24.00;99.90
14405;DHT22;14983;50.866;4.304;2022-08-21T15:35:34;23.90;99.90
14405;DHT22;14983;50.866;4.304;2022-08-21T15:38:01;24.00;99.90
14405;DHT22;14983;50.866;4.304;2022-08-21T15:40:29;24.10;99.90
14405;DHT22;14983;50.866;4.304;2022-08-21T15:42:58;24.40;99.90
14405;DHT22;14983;50.866;4.304;2022-08-21T15:45:26;24.20;99.90
14405;DHT22;14983;50.866;4.304;2022-08-21T15:47:54;24.00;99.90
14405;DHT22;14983;50.866;4.304;2022-08-21T15:50:24;23.90;99.90
14405;DHT22;14983;50.866;4.304;2022-08-21T15:52:52;24.00;1.00
14405;DHT22;14983;50.866;4.304;2022-08-21T15:55:20;24.00;1.00
14405;DHT22;14983;50.866;4.304;2022-08-21T15:57:49;24.20;99.90
14405;DHT22;14983;50.866;4.304;2022-08-21T16:00:20;24.50;99.90
14405;DHT22;14983;50.866;4.304;2022-08-21T16:02:50;24.60;99.90
14405;DHT22;14983;50.866;4.304;2022-08-21T16:05:18;24.70;99.90
14405;DHT22;14983;50.866;4.304;2022-08-21T16:07:48;24.70;99.90
14405;DHT22;14983;50.866;4.304;2022-08-21T16:10:18;24.30;99.90
14405;DHT22;14983;50.866;4.304;2022-08-21T16:12:49;24.00;1.00
14405;DHT22;14983;50.866;4.304;2022-08-21T16:15:21;24.00;1.00
14405;DHT22;14983;50.866;4.304;2022-08-21T16:17:49;24.00;1.00